Time;durP1;ratioP1;P1;durP2;ratioP2;P2;SDS_P1;SDS_P2;PMS_P1;PMS_P2;Temp;Humidity;BMP_temperature;BMP_pressure;BME280_temperature;BME280_humidity;BME280_pressure;Samples;Min_cycle;Max_cycle;Signal;HPM_P1;HPM_P2
2022/03/30 00:00:21;;;;;;;1.67;0.52;;;18.80;74.20;;;;;;6049934;23;95784;-44
2022/03/30 00:02:53;;;;;;;0.35;0.30;;;18.80;74.20;;;;;;6054431;23;102356;-44
2022/03/30 00:05:24;;;;;;;0.80;0.40;;;18.80;73.40;;;;;;6054369;23;95242;-44
2022/03/30 00:07:56;;;;;;;1.23;0.50;;;18.80;73.40;;;;;;6054592;23;95736;-44
2022/03/30 00:10:26;;;;;;;4.50;0.57;;;18.90;73.40;;;;;;6054715;23;95609;-44
2022/03/30 00:12:56;;;;;;;2.05;0.60;;;18.90;73.50;;;;;;6054499;23;96542;-44
2022/03/30 00:15:26;;;;;;;1.70;0.63;;;18.90;73.40;;;;;;6048223;23;95224;-44
2022/03/30 00:17:58;;;;;;;1.48;0.47;;;18.90;73.50;;;;;;6054647;23;95146;-44
2022/03/30 00:20:29;;;;;;;0.90;0.60;;;18.90;73.40;;;;;;6054738;23;95814;-43
2022/03/30 00:22:59;;;;;;;1.70;0.67;;;19.00;73.60;;;;;;6054465;23;95674;-44
2022/03/30 00:25:32;;;;;;;0.73;0.50;;;19.00;73.40;;;;;;6053541;23;95361;-43
2022/03/30 00:28:02;;;;;;;1.05;0.55;;;19.00;73.50;;;;;;6054164;23;95730;-43
2022/03/30 00:30:33;;;;;;;1.85;0.75;;;19.00;73.40;;;;;;6048914;23;95557;-43
2022/03/30 00:33:05;;;;;;;2.83;0.75;;;19.00;73.40;;;;;;6053968;23;96565;-43
2022/03/30 00:35:40;;;;;;;3.50;0.90;;;19.10;73.10;;;;;;6054487;23;95889;-43
2022/03/30 00:38:14;;;;;;;2.08;0.70;;;19.10;72.90;;;;;;6054873;23;95842;-43
2022/03/30 00:40:48;;;;;;;1.25;0.68;;;19.00;72.90;;;;;;6054550;23;95771;-43
2022/03/30 00:43:20;;;;;;;2.40;1.00;;;19.10;72.70;;;;;;6054543;23;96122;-43
2022/03/30 00:45:50;;;;;;;4.00;0.90;;;19.10;72.40;;;;;;6047070;23;96765;-43
2022/03/30 00:48:21;;;;;;;3.40;0.93;;;19.10;72.20;;;;;;6052839;23;95465;-47
2022/03/30 00:50:53;;;;;;;2.15;0.77;;;19.10;72.40;;;;;;6056756;23;95435;-42
2022/03/30 00:53:24;;;;;;;1.08;0.70;;;19.20;72.80;;;;;;6056391;23;96483;-43
2022/03/30 00:55:55;;;;;;;1.33;0.60;;;19.20;73.10;;;;;;6055478;23;95687;-43
2022/03/30 00:58:27;;;;;;;5.63;0.70;;;19.30;72.90;;;;;;6055669;23;95430;-43
2022/03/30 01:00:59;;;;;;;2.92;0.85;;;19.30;73.00;;;;;;6050007;23;95657;-44
2022/03/30 01:03:30;;;;;;;3.88;0.90;;;19.30;72.90;;;;;;6056192;23;95994;-43
2022/03/30 01:06:02;;;;;;;5.25;1.15;;;19.30;73.10;;;;;;6055865;23;95797;-43
2022/03/30 01:08:32;;;;;;;4.00;0.85;;;19.30;73.10;;;;;;6056913;23;95131;-43
2022/03/30 01:11:02;;;;;;;3.80;0.88;;;19.40;73.30;;;;;;6056990;23;95990;-43
2022/03/30 01:13:33;;;;;;;4.10;0.80;;;19.40;73.30;;;;;;6055547;23;95991;-43
2022/03/30 01:16:23;;;;;;;2.93;0.77;;;19.40;73.40;;;;;;6050200;23;95638;-43
2022/03/30 01:19:07;;;;;;;2.17;0.68;;;19.40;73.20;;;;;;6054719;23;95734;-44
2022/03/30 01:21:39;;;;;;;7.03;0.98;;;19.40;73.30;;;;;;6056591;23;95836;-43
2022/03/30 01:24:11;;;;;;;7.97;1.08;;;19.40;72.80;;;;;;6058741;23;96004;-43
2022/03/30 01:26:42;;;;;;;33.88;11.55;;;19.40;72.80;;;;;;6057403;23;95607;-46
2022/03/30 01:34:58;;;;;;;15.50;4.97;;;19.40;73.40;;;;;;6059259;23;96365;-47
2022/03/30 01:37:32;;;;;;;9.35;3.75;;;19.40;73.20;;;;;;6058900;23;95889;-47
2022/03/30 01:40:06;;;;;;;7.10;3.13;;;19.40;73.70;;;;;;6060406;23;95734;-46
2022/03/30 01:42:38;;;;;;;13.77;3.20;;;19.40;74.00;;;;;;6059882;23;95498;-46
2022/03/30 01:45:11;;;;;;;8.13;3.50;;;19.40;73.30;;;;;;6050414;23;99292;-54
2022/03/30 01:47:47;;;;;;;7.57;2.47;;;19.40;73.20;;;;;;6053300;23;96077;-46
2022/03/30 01:50:21;;;;;;;5.93;2.70;;;19.40;73.20;;;;;;6059563;23;95189;-46
2022/03/30 01:52:51;;;;;;;6.35;2.17;;;19.40;73.30;;;;;;6081758;23;95762;-47
2022/03/30 01:55:21;;;;;;;5.05;1.95;;;19.40;72.90;;;;;;6059965;23;95815;-46
2022/03/30 01:57:51;;;;;;;9.10;2.80;;;19.40;73.20;;;;;;6059602;23;95494;-46
2022/03/30 02:00:22;;;;;;;12.27;2.47;;;19.40;73.30;;;;;;6054752;23;95563;-45
2022/03/30 02:02:52;;;;;;;6.85;1.98;;;19.40;73.40;;;;;;6059043;23;95439;-45
2022/03/30 02:05:24;;;;;;;;;;;19.40;73.10;;;;;;6060082;23;96684;-46
2022/03/30 02:07:55;;;;;;;9.35;2.40;;;19.40;72.90;;;;;;6061246;23;95567;-46
2022/03/30 02:10:28;;;;;;;5.03;2.15;;;19.40;73.10;;;;;;6060264;23;95481;-46
2022/03/30 02:13:00;;;;;;;4.15;1.95;;;19.40;72.90;;;;;;6060306;23;95869;-46
2022/03/30 02:15:30;;;;;;;6.28;2.00;;;19.40;72.50;;;;;;6053417;23;95806;-46
2022/03/30 02:18:00;;;;;;;4.07;1.70;;;19.40;72.60;;;;;;6059127;23;101860;-46
2022/03/30 02:20:32;;;;;;;4.82;1.48;;;19.40;72.10;;;;;;6059843;23;95481;-47
2022/03/30 02:23:01;;;;;;;4.30;1.70;;;19.30;72.30;;;;;;6060114;23;95654;-46
2022/03/30 02:25:32;;;;;;;2.03;1.47;;;19.40;71.90;;;;;;6059887;23;95838;-46
2022/03/30 02:28:03;;;;;;;3.75;2.28;;;19.40;72.30;;;;;;6059837;23;95520;-46
2022/03/30 02:30:34;;;;;;;4.20;1.80;;;19.40;72.10;;;;;;6052365;23;97367;-45
2022/03/30 02:33:05;;;;;;;;;;;19.40;72.00;;;;;;6060864;23;95462;-45
2022/03/30 02:35:38;;;;;;;;;;;19.40;72.30;;;;;;6061856;23;95849;-45
2022/03/30 02:38:10;;;;;;;3.05;1.38;;;19.40;71.50;;;;;;6060106;23;95442;-45
2022/03/30 02:40:42;;;;;;;2.72;1.30;;;19.40;71.40;;;;;;6081729;23;95682;-46
2022/03/30 02:43:16;;;;;;;4.03;1.23;;;19.40;71.10;;;;;;6060694;23;95570;-46
2022/03/30 02:45:48;;;;;;;5.03;1.30;;;19.40;71.10;;;;;;6051693;23;96102;-45
2022/03/30 02:48:18;;;;;;;2.80;1.33;;;19.40;71.30;;;;;;6056706;23;95995;-49
2022/03/30 02:50:51;;;;;;;5.13;1.40;;;19.40;71.40;;;;;;6060157;23;95595;-45
2022/03/30 02:53:22;;;;;;;3.33;1.30;;;19.40;71.60;;;;;;6060032;23;95582;-46
2022/03/30 02:55:52;;;;;;;5.00;1.33;;;19.40;71.50;;;;;;6059395;23;95982;-47
2022/03/30 02:58:22;;;;;;;2.30;1.27;;;19.40;71.80;;;;;;6059574;23;95852;-45
2022/03/30 03:00:54;;;;;;;3.83;1.30;;;19.40;72.00;;;;;;6052503;23;95500;-46
2022/03/30 03:03:26;;;;;;;5.57;1.45;;;19.40;72.10;;;;;;6059920;23;95514;-46
2022/03/30 03:05:57;;;;;;;4.72;1.40;;;19.40;71.90;;;;;;6059449;23;96420;-45
2022/03/30 03:08:27;;;;;;;3.97;1.83;;;19.40;71.90;;;;;;6059574;23;95557;-46
2022/03/30 03:10:58;;;;;;;2.28;0.93;;;19.40;71.90;;;;;;6059733;23;95216;-46
2022/03/30 03:13:30;;;;;;;;;;;19.40;71.90;;;;;;6081596;23;95465;-45
2022/03/30 03:16:01;;;;;;;2.63;1.10;;;19.40;71.70;;;;;;6054063;23;95742;-45
2022/03/30 03:18:35;;;;;;;3.45;1.25;;;19.50;72.00;;;;;;6059582;23;95952;-45
2022/03/30 03:21:06;;;;;;;2.63;1.00;;;19.40;71.90;;;;;;6060554;23;95645;-45
2022/03/30 03:23:36;;;;;;;3.13;1.20;;;19.50;72.10;;;;;;6060275;23;95467;-45
2022/03/30 03:26:07;;;;;;;2.65;1.23;;;19.50;72.00;;;;;;6059362;23;96752;-45
2022/03/30 03:28:37;;;;;;;4.47;1.02;;;19.50;71.60;;;;;;6058708;23;95596;-45
2022/03/30 03:31:10;;;;;;;5.25;1.17;;;19.50;71.20;;;;;;6052934;23;95944;-45
2022/03/30 03:33:40;;;;;;;4.43;0.90;;;19.50;70.60;;;;;;6060046;23;95310;-46
2022/03/30 03:36:11;;;;;;;2.65;1.10;;;19.50;70.10;;;;;;6059029;23;95951;-46
2022/03/30 03:38:44;;;;;;;3.40;0.80;;;19.50;70.90;;;;;;6059141;23;95530;-46
2022/03/30 03:41:15;;;;;;;1.85;0.70;;;19.50;70.90;;;;;;6059664;23;95791;-48
2022/03/30 03:43:47;;;;;;;2.33;0.70;;;19.50;71.00;;;;;;6059983;23;95456;-46
2022/03/30 03:46:19;;;;;;;1.60;0.80;;;19.50;71.30;;;;;;6046719;23;95902;-46
2022/03/30 03:48:54;;;;;;;2.85;0.77;;;19.50;71.40;;;;;;6057472;23;95911;-46
2022/03/30 03:51:23;;;;;;;2.33;0.80;;;19.50;71.30;;;;;;6059602;23;95692;-46
2022/03/30 03:53:54;;;;;;;1.98;0.85;;;19.60;71.40;;;;;;6059629;23;95416;-46
2022/03/30 03:56:25;;;;;;;2.95;0.95;;;19.60;71.40;;;;;;6059395;23;95655;-45
2022/03/30 03:58:55;;;;;;;2.35;0.52;;;19.60;71.40;;;;;;6059044;23;96347;-46
2022/03/30 04:01:27;;;;;;;2.17;1.00;;;19.60;71.00;;;;;;6052838;23;95947;-45
2022/03/30 04:04:00;;;;;;;3.78;0.60;;;19.60;71.10;;;;;;6059953;23;95880;-46
2022/03/30 04:06:34;;;;;;;2.58;0.88;;;19.60;71.10;;;;;;6059244;23;96224;-45
2022/03/30 04:09:06;;;;;;;1.45;1.00;;;19.60;70.70;;;;;;6059315;23;95570;-46
2022/03/30 04:11:37;;;;;;;3.30;1.08;;;19.60;71.00;;;;;;6060023;23;95627;-45
2022/03/30 04:14:07;;;;;;;4.88;1.00;;;19.60;71.00;;;;;;6060073;23;95530;-51
2022/03/30 04:16:38;;;;;;;6.30;0.70;;;19.70;71.00;;;;;;6051225;23;96001;-45
2022/03/30 04:19:10;;;;;;;6.15;1.33;;;19.70;70.20;;;;;;6058289;23;95566;-46
2022/03/30 04:21:41;;;;;;;1.20;0.63;;;19.60;69.50;;;;;;6059409;23;95486;-46
2022/03/30 04:24:12;;;;;;;1.55;0.68;;;19.60;69.30;;;;;;6059656;23;95808;-45
2022/03/30 04:26:42;;;;;;;3.85;0.93;;;19.60;69.50;;;;;;6058897;23;96604;-46
2022/03/30 04:29:13;;;;;;;3.00;1.00;;;19.70;69.60;;;;;;6059144;23;95599;-45
2022/03/30 04:31:45;;;;;;;2.00;0.77;;;19.60;69.40;;;;;;6051535;23;95508;-45
2022/03/30 04:34:16;;;;;;;3.65;0.70;;;19.70;69.40;;;;;;6059499;23;95508;-45
2022/03/30 04:36:46;;;;;;;0.85;0.60;;;19.70;69.60;;;;;;6058522;23;95782;-44
2022/03/30 04:39:17;;;;;;;3.85;0.98;;;19.70;69.10;;;;;;6059138;23;95610;-44
2022/03/30 04:41:48;;;;;;;1.47;0.60;;;19.60;69.30;;;;;;6059153;23;95407;-45
2022/03/30 04:44:21;;;;;;;3.47;0.93;;;19.70;69.80;;;;;;6059667;23;95574;-45
2022/03/30 04:46:53;;;;;;;3.88;0.90;;;19.70;69.50;;;;;;6047898;23;95806;-45
2022/03/30 04:49:23;;;;;;;0.60;0.50;;;19.70;69.10;;;;;;6058224;23;96099;-45
2022/03/30 04:51:53;;;;;;;2.60;0.60;;;19.70;69.40;;;;;;6058870;23;95710;-44
2022/03/30 04:54:23;;;;;;;1.95;0.50;;;19.70;69.50;;;;;;6059498;23;95265;-44
2022/03/30 04:56:53;;;;;;;2.53;0.75;;;19.80;69.50;;;;;;6058745;23;96042;-44
2022/03/30 04:59:24;;;;;;;5.13;0.77;;;19.80;69.00;;;;;;6058996;23;95234;-45
2022/03/30 05:01:56;;;;;;;1.60;0.85;;;19.70;68.90;;;;;;6052674;23;98760;-45
2022/03/30 05:04:32;;;;;;;1.40;0.40;;;19.80;69.40;;;;;;6059691;23;95217;-44
2022/03/30 05:07:02;;;;;;;1.27;0.55;;;19.80;69.80;;;;;;6058719;23;95837;-45
2022/03/30 05:09:33;;;;;;;1.95;0.50;;;19.80;69.40;;;;;;6057850;23;95616;-45
2022/03/30 05:12:03;;;;;;;3.53;0.85;;;19.80;69.10;;;;;;6059165;23;95544;-45
2022/03/30 05:14:33;;;;;;;0.93;0.50;;;19.80;69.20;;;;;;6059233;23;95684;-45
2022/03/30 05:17:04;;;;;;;1.55;0.50;;;19.80;69.50;;;;;;6051944;23;96480;-45
2022/03/30 05:19:37;;;;;;;0.30;0.30;;;19.80;69.40;;;;;;6058683;23;95150;-45
2022/03/30 05:22:08;;;;;;;0.75;0.50;;;19.80;69.50;;;;;;6059301;23;95159;-46
2022/03/30 05:24:38;;;;;;;1.17;0.60;;;19.80;69.70;;;;;;6059123;23;95995;-45
2022/03/30 05:27:09;;;;;;;5.20;0.60;;;19.90;69.80;;;;;;6058676;23;95817;-46
2022/03/30 05:29:40;;;;;;;1.25;0.70;;;19.90;69.90;;;;;;6058317;23;96928;-45
2022/03/30 05:32:11;;;;;;;0.75;0.50;;;19.90;69.90;;;;;;6051626;23;95712;-45
2022/03/30 05:34:44;;;;;;;1.80;0.55;;;19.90;69.80;;;;;;6058902;23;95817;-45
2022/03/30 05:37:16;;;;;;;1.90;0.80;;;19.90;69.60;;;;;;6058558;23;96632;-45
2022/03/30 05:39:48;;;;;;;0.82;0.40;;;19.90;69.10;;;;;;6059845;23;95694;-44
2022/03/30 05:42:22;;;;;;;1.75;0.65;;;19.90;69.30;;;;;;6059596;23;95253;-44
2022/03/30 05:44:54;;;;;;;0.90;0.43;;;19.90;69.10;;;;;;6059139;23;95600;-44
2022/03/30 05:47:24;;;;;;;1.45;0.60;;;19.90;69.80;;;;;;6049553;23;96820;-44
2022/03/30 05:49:54;;;;;;;3.63;0.82;;;19.90;69.40;;;;;;6059712;23;95536;-45
2022/03/30 05:52:24;;;;;;;4.35;0.88;;;19.90;69.40;;;;;;6060437;23;95548;-44
2022/03/30 05:54:54;;;;;;;3.17;0.50;;;19.90;69.40;;;;;;6060176;23;95503;-45
2022/03/30 05:57:24;;;;;;;2.22;0.47;;;19.90;69.20;;;;;;6059565;23;95911;-44
2022/03/30 05:59:55;;;;;;;;;;;19.90;69.20;;;;;;6059543;23;95705;-44
2022/03/30 06:02:27;;;;;;;1.63;0.57;;;20.00;69.20;;;;;;6055572;23;95170;-45
2022/03/30 06:04:58;;;;;;;3.47;0.60;;;19.90;69.20;;;;;;6060627;23;95489;-44
2022/03/30 06:07:28;;;;;;;2.17;0.52;;;20.00;69.30;;;;;;6059989;23;95766;-45
2022/03/30 06:09:58;;;;;;;2.03;0.57;;;20.00;69.40;;;;;;6060041;23;95746;-45
2022/03/30 06:12:28;;;;;;;8.18;0.70;;;20.00;69.30;;;;;;6060506;23;95490;-52
2022/03/30 06:14:58;;;;;;;3.72;1.05;;;20.00;69.20;;;;;;6059959;23;95842;-44
2022/03/30 06:17:36;;;;;;;2.92;0.60;;;20.00;69.10;;;;;;6052645;23;95880;-44
2022/03/30 06:20:10;;;;;;;4.60;0.63;;;19.90;69.00;;;;;;6059573;23;95585;-45
2022/03/30 06:22:41;;;;;;;1.80;0.60;;;20.00;69.20;;;;;;6060372;23;95479;-48
2022/03/30 06:25:12;;;;;;;2.00;0.80;;;20.00;69.30;;;;;;6059810;23;95696;-45
2022/03/30 06:27:42;;;;;;;0.55;0.52;;;20.00;69.50;;;;;;6059656;23;96961;-45
2022/03/30 06:30:13;;;;;;;2.33;0.52;;;20.00;69.60;;;;;;6059599;23;95257;-44
2022/03/30 06:32:46;;;;;;;2.27;0.53;;;20.00;69.60;;;;;;6052792;23;95521;-44
2022/03/30 06:35:20;;;;;;;2.38;0.60;;;20.00;69.60;;;;;;6060601;23;95682;-45
2022/03/30 06:37:51;;;;;;;2.08;0.63;;;20.00;69.60;;;;;;6058899;23;96639;-44
2022/03/30 06:40:23;;;;;;;4.70;0.90;;;20.00;69.60;;;;;;6059157;23;95584;-45
2022/03/30 06:42:54;;;;;;;2.20;0.73;;;20.00;69.60;;;;;;6060394;23;95907;-45
2022/03/30 06:45:25;;;;;;;4.85;0.57;;;20.00;69.50;;;;;;6050245;23;95871;-44
2022/03/30 06:47:56;;;;;;;2.92;0.70;;;20.00;69.60;;;;;;6054995;23;96556;-44
2022/03/30 06:50:27;;;;;;;1.75;0.68;;;20.00;69.70;;;;;;6058718;23;95543;-45
2022/03/30 06:52:59;;;;;;;2.92;0.60;;;20.00;69.80;;;;;;6059725;23;95853;-44
2022/03/30 06:55:33;;;;;;;2.92;0.60;;;20.00;69.80;;;;;;6059171;23;95674;-46
2022/03/30 06:58:04;;;;;;;;;;;20.00;70.40;;;;;;6059387;23;96587;-49
2022/03/30 07:00:34;;;;;;;2.58;0.90;;;20.00;69.90;;;;;;6052826;23;98554;-44
2022/03/30 07:03:05;;;;;;;4.60;0.73;;;20.00;70.10;;;;;;6060033;23;95829;-44
2022/03/30 07:05:38;;;;;;;3.20;0.63;;;20.00;70.00;;;;;;6059333;23;95598;-44
2022/03/30 07:10:56;;;;;;;0.68;0.40;;;20.00;70.10;;;;;;6059473;23;95862;-46
2022/03/30 07:13:26;;;;;;;4.75;0.88;;;19.90;70.10;;;;;;6060071;23;95141;-46
2022/03/30 07:15:56;;;;;;;2.38;0.47;;;20.00;70.10;;;;;;6053132;23;95281;-52
2022/03/30 07:18:28;;;;;;;0.82;0.50;;;19.90;69.70;;;;;;6059631;23;96325;-46
2022/03/30 07:20:58;;;;;;;;;;;19.90;69.70;;;;;;6059760;23;95871;-44
2022/03/30 07:23:28;;;;;;;1.45;0.60;;;19.90;69.60;;;;;;6060604;23;95604;-44
2022/03/30 07:26:00;;;;;;;3.53;1.20;;;19.90;69.70;;;;;;6082821;23;96202;-45
2022/03/30 07:28:31;;;;;;;3.60;1.40;;;19.90;69.80;;;;;;6059195;23;96015;-45
2022/03/30 07:31:05;;;;;;;4.82;1.65;;;19.90;70.00;;;;;;6051881;23;98427;-44
2022/03/30 07:33:37;;;;;;;2.78;1.20;;;19.90;70.20;;;;;;6059497;23;95633;-45
2022/03/30 07:36:09;;;;;;;4.63;1.67;;;19.90;70.30;;;;;;6059016;23;95427;-45
2022/03/30 07:38:40;;;;;;;1.70;1.55;;;20.00;70.70;;;;;;6057795;23;96955;-45
2022/03/30 07:41:11;;;;;;;;;;;20.00;70.70;;;;;;6057900;23;95680;-45
2022/03/30 07:43:45;;;;;;;3.25;1.20;;;20.00;70.90;;;;;;6061357;23;95728;-45
2022/03/30 07:46:16;;;;;;;4.82;1.95;;;20.00;70.90;;;;;;6046163;23;95440;-50
2022/03/30 07:48:46;;;;;;;6.43;1.58;;;20.00;71.10;;;;;;6055569;23;96442;-50
2022/03/30 07:51:17;;;;;;;4.85;1.60;;;20.00;71.10;;;;;;6058089;23;95829;-45
2022/03/30 07:53:49;;;;;;;4.70;1.55;;;19.90;71.00;;;;;;6058577;23;95087;-49
2022/03/30 07:56:20;;;;;;;4.20;1.20;;;20.00;71.10;;;;;;6080160;23;95763;-45
2022/03/30 07:58:53;;;;;;;5.28;1.20;;;19.90;71.10;;;;;;6057349;23;95888;-45
2022/03/30 08:01:23;;;;;;;2.08;1.50;;;20.00;71.20;;;;;;6049753;23;95681;-45
2022/03/30 08:03:56;;;;;;;9.20;1.88;;;19.90;71.10;;;;;;6058343;23;95142;-45
2022/03/30 08:06:29;;;;;;;2.55;1.55;;;20.00;71.00;;;;;;6057738;23;95723;-45
2022/03/30 08:08:58;;;;;;;;;;;20.00;71.00;;;;;;6058609;23;96257;-45
2022/03/30 08:11:28;;;;;;;5.22;1.45;;;19.90;70.80;;;;;;6059388;23;95436;-45
2022/03/30 08:13:58;;;;;;;4.35;1.50;;;19.90;70.70;;;;;;6058181;23;95616;-44
2022/03/30 08:16:28;;;;;;;5.88;1.25;;;19.90;70.60;;;;;;6051870;23;95320;-45
2022/03/30 08:18:59;;;;;;;3.97;1.38;;;19.90;70.60;;;;;;6058180;23;95762;-45
2022/03/30 08:24:20;;;;;;;3.55;0.95;;;19.90;70.50;;;;;;6058656;23;95699;-45
2022/03/30 08:26:52;;;;;;;2.72;1.45;;;19.90;70.60;;;;;;6058189;23;95567;-50
2022/03/30 08:29:22;;;;;;;2.67;1.27;;;19.80;70.60;;;;;;6057568;23;96739;-45
2022/03/30 08:31:54;;;;;;;;;;;19.80;70.60;;;;;;6052728;23;95542;-44
2022/03/30 08:34:26;;;;;;;4.25;1.10;;;19.80;70.50;;;;;;6060629;23;96428;-44
2022/03/30 08:36:58;;;;;;;5.18;1.88;;;19.80;70.60;;;;;;6059022;23;95428;-45
2022/03/30 08:39:29;;;;;;;4.47;1.13;;;19.80;70.70;;;;;;6058362;23;96861;-48
2022/03/30 08:42:01;;;;;;;4.67;1.27;;;19.80;70.70;;;;;;6057764;23;95567;-46
2022/03/30 08:44:34;;;;;;;2.97;1.08;;;19.80;70.70;;;;;;6057586;23;95610;-44
2022/03/30 08:47:07;;;;;;;2.88;1.17;;;19.80;70.70;;;;;;6044122;23;95767;-45
2022/03/30 08:49:38;;;;;;;2.35;1.00;;;19.70;70.70;;;;;;6057633;23;96822;-45
2022/03/30 08:52:12;;;;;;;3.35;1.17;;;19.70;70.70;;;;;;6057459;23;95906;-44
2022/03/30 08:54:50;;;;;;;1.65;0.93;;;19.70;70.70;;;;;;6058051;23;95384;-44
2022/03/30 08:57:20;;;;;;;2.22;0.98;;;19.70;70.70;;;;;;6058203;23;95412;-45
2022/03/30 09:00:05;;;;;;;3.58;1.33;;;19.70;70.70;;;;;;6057668;23;96067;-44
2022/03/30 09:02:43;;;;;;;3.35;1.10;;;19.70;70.90;;;;;;6049907;23;95505;-44
2022/03/30 09:05:25;;;;;;;6.40;1.55;;;19.70;70.80;;;;;;6057565;23;95644;-46
2022/03/30 09:08:07;;;;;;;2.67;0.98;;;19.70;70.90;;;;;;6058215;23;95589;-44
2022/03/30 09:10:39;;;;;;;4.75;1.00;;;19.70;70.90;;;;;;6058385;23;95776;-45
2022/03/30 09:13:13;;;;;;;3.33;0.93;;;19.70;71.00;;;;;;6059041;23;95523;-45
2022/03/30 09:15:45;;;;;;;4.30;1.48;;;19.70;71.10;;;;;;6054634;23;95338;-45
2022/03/30 09:18:17;;;;;;;2.75;1.10;;;19.70;71.30;;;;;;6059601;23;95592;-45
2022/03/30 09:20:55;;;;;;;4.03;1.25;;;19.70;71.70;;;;;;6056497;23;95942;-45
2022/03/30 09:23:27;;;;;;;4.72;1.50;;;19.60;71.60;;;;;;6058667;23;95888;-50
2022/03/30 09:26:00;;;;;;;3.85;1.58;;;19.70;72.00;;;;;;6059195;23;95835;-45
2022/03/30 09:28:30;;;;;;;3.92;1.45;;;19.60;72.00;;;;;;6059314;23;95633;-45
2022/03/30 09:31:01;;;;;;;5.68;1.30;;;19.60;72.20;;;;;;6052601;23;96649;-45
2022/03/30 09:33:32;;;;;;;;;;;19.60;72.30;;;;;;6058920;23;96178;-45
2022/03/30 09:36:25;;;;;;;6.97;1.63;;;19.60;72.40;;;;;;6058283;23;95969;-45
2022/03/30 09:38:56;;;;;;;;;;;19.60;72.50;;;;;;6059680;23;95369;-46
2022/03/30 09:41:48;;;;;;;3.83;1.27;;;19.60;72.50;;;;;;6059743;23;97248;-45
2022/03/30 09:44:21;;;;;;;5.80;1.48;;;19.60;72.50;;;;;;6058815;23;95684;-45
2022/03/30 09:46:55;;;;;;;9.40;2.05;;;19.60;72.80;;;;;;6045367;23;95613;-49
2022/03/30 09:49:39;;;;;;;6.85;1.50;;;19.60;72.90;;;;;;6057400;23;95637;-45
2022/03/30 09:52:20;;;;;;;7.65;1.90;;;19.60;72.80;;;;;;6058515;23;96518;-44
2022/03/30 09:55:00;;;;;;;6.35;2.28;;;19.60;72.80;;;;;;6058306;23;95781;-44
2022/03/30 09:57:41;;;;;;;8.60;1.67;;;19.60;72.90;;;;;;6059202;23;95668;-44
2022/03/30 10:00:18;;;;;;;9.88;2.30;;;19.50;72.70;;;;;;6073903;23;95480;-48
2022/03/30 10:02:51;;;;;;;7.40;1.80;;;19.50;72.70;;;;;;6057855;23;102179;-46
2022/03/30 10:05:25;;;;;;;8.20;2.38;;;19.50;72.60;;;;;;6058461;23;95853;-44
2022/03/30 10:07:56;;;;;;;8.15;2.20;;;19.40;72.40;;;;;;6058799;23;95510;-44
2022/03/30 10:10:27;;;;;;;6.25;1.73;;;19.40;72.50;;;;;;6059162;23;95483;-44
2022/03/30 10:12:57;;;;;;;6.28;2.20;;;19.40;72.50;;;;;;6058913;23;96408;-44
2022/03/30 10:15:27;;;;;;;6.80;2.27;;;19.40;72.40;;;;;;6052743;23;96192;-44
2022/03/30 10:17:58;;;;;;;7.55;2.25;;;19.40;72.30;;;;;;6058517;23;95471;-44
2022/03/30 10:20:31;;;;;;;7.38;1.90;;;19.40;72.20;;;;;;6059536;23;95471;-44
2022/03/30 10:23:14;;;;;;;8.93;2.20;;;19.30;72.20;;;;;;6057935;23;96006;-44
2022/03/30 10:26:13;;;;;;;8.10;2.00;;;19.30;72.20;;;;;;6057697;23;96132;-43
2022/03/30 10:28:59;;;;;;;6.63;2.13;;;19.30;72.20;;;;;;6059198;23;95452;-41
2022/03/30 10:31:30;;;;;;;7.22;1.77;;;19.30;72.30;;;;;;6053605;23;95595;-42
2022/03/30 10:34:27;;;;;;;8.13;1.75;;;19.40;72.40;;;;;;6081019;23;96303;-41
2022/03/30 10:37:09;;;;;;;7.53;2.13;;;19.40;72.30;;;;;;6058667;23;95944;-41
2022/03/30 10:39:58;;;;;;;8.23;1.80;;;19.40;72.20;;;;;;6059531;23;95828;-41
2022/03/30 10:42:54;;;;;;;7.15;2.00;;;19.40;72.20;;;;;;6058401;23;95331;-43
2022/03/30 10:45:42;;;;;;;4.43;1.55;;;19.40;72.20;;;;;;6046614;23;96288;-41
2022/03/30 10:48:18;;;;;;;5.70;1.98;;;19.40;72.20;;;;;;6054156;23;95684;-41
2022/03/30 10:51:07;;;;;;;5.15;1.42;;;19.40;72.20;;;;;;6059327;23;95183;-42
2022/03/30 10:53:47;;;;;;;5.25;1.90;;;19.40;72.20;;;;;;6058522;23;95383;-42
2022/03/30 10:56:22;;;;;;;5.55;2.17;;;19.40;72.10;;;;;;6057928;23;95956;-41
2022/03/30 10:58:55;;;;;;;5.97;2.22;;;19.40;72.10;;;;;;6057345;23;95591;-41
2022/03/30 11:01:33;;;;;;;4.93;1.80;;;19.40;72.10;;;;;;6051863;23;95629;-41
2022/03/30 11:04:14;;;;;;;6.10;1.92;;;19.40;72.10;;;;;;6058881;23;95916;-41
2022/03/30 11:07:04;;;;;;;7.53;1.50;;;19.40;72.00;;;;;;6058223;23;96378;-41
2022/03/30 11:09:35;;;;;;;3.47;1.20;;;19.40;72.00;;;;;;6058404;23;95850;-41
2022/03/30 11:12:12;;;;;;;;;;;19.40;72.10;;;;;;6059065;23;95559;-42
2022/03/30 11:14:45;;;;;;;2.83;1.20;;;19.40;72.00;;;;;;6060367;23;95604;-42
2022/03/30 11:17:31;;;;;;;5.47;1.67;;;19.40;72.00;;;;;;6050538;23;95822;-42
2022/03/30 11:20:06;;;;;;;5.53;1.38;;;19.40;72.00;;;;;;6058401;23;96126;-43
2022/03/30 11:22:42;;;;;;;4.70;1.70;;;19.40;72.00;;;;;;6059269;23;95627;-41
2022/03/30 11:25:24;;;;;;;5.07;1.27;;;19.40;71.90;;;;;;6059317;23;95795;-42
2022/03/30 11:28:01;;;;;;;5.93;1.58;;;19.40;72.00;;;;;;6058965;23;95872;-41
2022/03/30 11:30:36;;;;;;;3.50;1.35;;;19.40;71.90;;;;;;6051716;23;95698;-41
2022/03/30 11:33:23;;;;;;;4.78;1.85;;;19.40;72.60;;;;;;6058545;23;95694;-41
2022/03/30 11:35:54;;;;;;;4.07;1.38;;;19.40;71.90;;;;;;6057981;23;95221;-42
2022/03/30 11:38:37;;;;;;;6.82;1.40;;;19.30;71.90;;;;;;6057601;23;95896;-41
2022/03/30 11:41:10;;;;;;;5.10;1.33;;;19.40;71.90;;;;;;6058634;23;95698;-41
2022/03/30 11:46:33;;;;;;;2.67;1.23;;;19.40;71.90;;;;;;6047745;23;96562;-42
2022/03/30 11:49:06;;;;;;;3.50;1.10;;;19.40;71.90;;;;;;6056601;23;96382;-41
2022/03/30 11:51:38;;;;;;;2.97;1.30;;;19.40;71.90;;;;;;6058958;23;95614;-42
2022/03/30 11:54:09;;;;;;;;;;;19.40;72.00;;;;;;6060531;23;95156;-42
2022/03/30 11:56:43;;;;;;;4.85;1.58;;;19.30;71.80;;;;;;6060960;23;95617;-42
2022/03/30 11:59:16;;;;;;;6.30;1.70;;;19.30;71.80;;;;;;6058898;23;95832;-41
2022/03/30 12:01:46;;;;;;;6.03;1.70;;;19.30;71.90;;;;;;6051946;23;95671;-41
2022/03/30 12:04:16;;;;;;;5.93;1.33;;;19.30;71.80;;;;;;6059473;23;95686;-42
2022/03/30 12:06:52;;;;;;;6.72;1.63;;;19.30;71.90;;;;;;6059030;23;96268;-41
2022/03/30 12:09:23;;;;;;;3.40;1.55;;;19.30;71.80;;;;;;6058843;23;96398;-41
2022/03/30 12:11:58;;;;;;;3.95;1.40;;;19.30;71.90;;;;;;6058794;23;95511;-42
2022/03/30 12:14:29;;;;;;;5.78;1.90;;;19.30;71.90;;;;;;6059725;23;95693;-41
2022/03/30 12:17:01;;;;;;;;;;;19.30;71.90;;;;;;6053857;23;95574;-42
2022/03/30 12:19:31;;;;;;;4.18;1.23;;;19.30;72.50;;;;;;6061018;23;95934;-41
2022/03/30 12:22:06;;;;;;;;;;;19.30;71.80;;;;;;6059273;23;95549;-41
2022/03/30 12:24:36;;;;;;;4.28;1.73;;;19.30;71.80;;;;;;6061056;23;95118;-42
2022/03/30 12:27:07;;;;;;;3.65;1.50;;;19.30;71.80;;;;;;6059399;23;95558;-41
2022/03/30 12:29:37;;;;;;;4.88;1.67;;;19.30;71.90;;;;;;6058775;23;95909;-41
2022/03/30 12:32:15;;;;;;;3.53;1.17;;;19.30;71.80;;;;;;6052650;23;95389;-41
2022/03/30 12:34:48;;;;;;;3.95;1.40;;;19.20;71.80;;;;;;6059217;23;96032;-42
2022/03/30 12:37:23;;;;;;;3.15;1.48;;;19.30;71.90;;;;;;6059560;23;95813;-42
2022/03/30 12:39:57;;;;;;;2.53;1.20;;;19.20;71.90;;;;;;6058644;23;96079;-41
2022/03/30 12:42:33;;;;;;;2.90;1.33;;;19.20;71.80;;;;;;6058534;23;95542;-41
2022/03/30 12:45:11;;;;;;;3.15;0.95;;;19.20;71.90;;;;;;6056941;23;95910;-41
2022/03/30 12:47:50;;;;;;;4.65;1.65;;;19.20;71.80;;;;;;6049158;23;95115;-41
2022/03/30 12:50:26;;;;;;;3.55;1.13;;;19.20;71.90;;;;;;6059296;23;96543;-41
2022/03/30 12:53:15;;;;;;;3.83;1.45;;;19.20;71.90;;;;;;6058587;23;95941;-41
2022/03/30 12:55:49;;;;;;;4.57;1.40;;;19.20;71.90;;;;;;6059077;23;95771;-41
2022/03/30 12:58:23;;;;;;;4.95;1.67;;;19.10;71.80;;;;;;6058984;23;95585;-43
2022/03/30 13:00:56;;;;;;;3.83;1.38;;;19.10;71.90;;;;;;6051849;23;96541;-41
2022/03/30 13:03:33;;;;;;;3.17;1.02;;;19.10;71.90;;;;;;6058213;23;95758;-42
2022/03/30 13:06:07;;;;;;;2.90;1.30;;;19.10;71.90;;;;;;6059178;23;95511;-41
2022/03/30 13:08:38;;;;;;;2.58;1.13;;;19.10;72.00;;;;;;6058757;23;95255;-41
2022/03/30 13:11:08;;;;;;;3.05;1.33;;;19.10;71.90;;;;;;6058348;23;96161;-41
2022/03/30 13:13:40;;;;;;;2.92;1.42;;;19.10;72.00;;;;;;6057520;23;95492;-42
2022/03/30 13:16:13;;;;;;;3.58;1.13;;;19.10;72.00;;;;;;6052425;23;97823;-42
2022/03/30 13:19:02;;;;;;;3.05;1.35;;;19.10;72.00;;;;;;6058276;23;95450;-41
2022/03/30 13:21:38;;;;;;;2.03;1.30;;;19.10;72.00;;;;;;6058468;23;96646;-42
2022/03/30 13:24:15;;;;;;;3.30;1.30;;;19.10;72.00;;;;;;6058637;23;95542;-41
2022/03/30 13:26:47;;;;;;;3.25;1.02;;;19.10;72.00;;;;;;6059070;23;95658;-41
2022/03/30 13:29:17;;;;;;;4.05;1.33;;;19.00;72.00;;;;;;6058511;23;95692;-41
2022/03/30 13:31:47;;;;;;;2.22;1.30;;;19.10;72.00;;;;;;6051840;23;95558;-41
2022/03/30 13:34:23;;;;;;;5.07;1.55;;;19.10;72.00;;;;;;6058135;23;95482;-41